Time;durP1;ratioP1;P1;durP2;ratioP2;P2;SDS_P1;SDS_P2;PMS_P1;PMS_P2;Temp;Humidity;BMP_temperature;BMP_pressure;BME280_temperature;BME280_humidity;BME280_pressure;Samples;Min_cycle;Max_cycle;Signal;HPM_P1;HPM_P2
2021/11/18 00:01:55;;;;;;;9.20;5.53;;;7.70;99.90;;;;;;4916652;29;20347;-78
2021/11/18 00:04:22;;;;;;;8.93;4.30;;;7.70;99.90;;;;;;4917733;29;20032;-77
2021/11/18 00:06:49;;;;;;;8.43;4.55;;;7.60;99.90;;;;;;4916815;29;20024;-77
2021/11/18 00:09:17;;;;;;;8.07;4.55;;;7.60;99.90;;;;;;4914629;29;20071;-75
2021/11/18 00:11:43;;;;;;;7.93;4.85;;;7.60;99.90;;;;;;4916955;29;20076;-78
2021/11/18 00:14:08;;;;;;;9.77;5.18;;;7.60;99.90;;;;;;4916294;29;20066;-76
2021/11/18 00:16:35;;;;;;;8.13;4.50;;;7.50;99.90;;;;;;4916089;29;20076;-77
2021/11/18 00:19:01;;;;;;;10.65;4.80;;;7.50;99.90;;;;;;4916149;29;20061;-76
2021/11/18 00:21:30;;;;;;;6.88;4.45;;;7.50;99.90;;;;;;4916070;29;20060;-76
2021/11/18 00:23:58;;;;;;;6.45;4.22;;;7.50;99.90;;;;;;4915906;29;20035;-75
2021/11/18 00:26:26;;;;;;;6.80;4.60;;;7.50;99.90;;;;;;4915432;29;20111;-76
2021/11/18 00:28:52;;;;;;;8.43;4.80;;;7.50;99.90;;;;;;4915230;29;20095;-79
2021/11/18 00:31:30;;;;;;;10.15;4.70;;;7.40;99.90;;;;;;4915698;29;20485;-78
2021/11/18 00:33:56;;;;;;;7.00;4.53;;;7.40;99.90;;;;;;4915180;29;20028;-76
2021/11/18 00:36:22;;;;;;;8.85;5.28;;;7.40;99.90;;;;;;4916370;29;20044;-77
2021/11/18 00:38:48;;;;;;;8.45;4.13;;;7.40;99.90;;;;;;4915828;29;20099;-77
2021/11/18 00:41:15;;;;;;;9.02;4.32;;;7.40;99.90;;;;;;4916110;29;20110;-79
2021/11/18 00:43:42;;;;;;;6.68;4.15;;;7.40;99.90;;;;;;4915931;29;20127;-76
2021/11/18 00:46:08;;;;;;;7.45;4.10;;;7.30;99.90;;;;;;4915790;29;20396;-79
2021/11/18 00:48:33;;;;;;;8.15;4.28;;;7.30;99.90;;;;;;4916089;29;20032;-78
2021/11/18 00:51:04;;;;;;;8.55;4.95;;;7.30;99.90;;;;;;4915270;29;20031;-76
2021/11/18 00:53:31;;;;;;;10.15;4.43;;;7.30;99.90;;;;;;4916271;29;20028;-78
2021/11/18 00:55:57;;;;;;;8.48;4.47;;;7.30;99.90;;;;;;4916087;29;20040;-79
2021/11/18 00:58:23;;;;;;;7.68;4.25;;;7.30;99.90;;;;;;4915462;29;20377;-78
2021/11/18 01:00:50;;;;;;;8.35;4.85;;;7.20;99.90;;;;;;4914278;29;20029;-79
2021/11/18 01:03:17;;;;;;;9.07;4.85;;;7.20;99.90;;;;;;4914287;29;20035;-79
2021/11/18 01:05:46;;;;;;;8.82;4.43;;;7.20;99.90;;;;;;4913787;29;20429;-79
2021/11/18 01:08:12;;;;;;;10.38;4.53;;;7.20;99.90;;;;;;4913817;29;20568;-82
2021/11/18 01:10:45;;;;;;;6.38;4.28;;;7.20;99.90;;;;;;4914696;29;20035;-79
2021/11/18 01:13:11;;;;;;;7.82;4.43;;;7.20;99.90;;;;;;4914945;29;20016;-79
2021/11/18 01:15:41;;;;;;;10.25;4.80;;;7.20;99.90;;;;;;4914606;29;20544;-77
2021/11/18 01:18:07;;;;;;;8.00;4.50;;;7.20;99.90;;;;;;4914109;29;20489;-77
2021/11/18 01:20:35;;;;;;;9.40;4.30;;;7.20;99.90;;;;;;4915352;29;20051;-76
2021/11/18 01:23:02;;;;;;;7.07;4.20;;;7.20;99.90;;;;;;4915524;29;20422;-76
2021/11/18 01:25:29;;;;;;;6.93;4.70;;;7.20;99.90;;;;;;4916219;29;20030;-77
2021/11/18 01:27:54;;;;;;;9.45;4.88;;;7.20;99.90;;;;;;4914280;29;20024;-76
2021/11/18 01:30:24;;;;;;;6.75;4.25;;;7.20;99.90;;;;;;4915304;29;20035;-78
2021/11/18 01:32:51;;;;;;;7.85;3.90;;;7.20;99.90;;;;;;4915652;29;20070;-76
2021/11/18 01:35:17;;;;;;;8.18;4.95;;;7.20;99.90;;;;;;4914764;29;20063;-77
2021/11/18 01:37:42;;;;;;;12.82;5.38;;;7.20;99.90;;;;;;4915970;29;20450;-77
2021/11/18 01:40:11;;;;;;;9.38;4.97;;;7.20;99.90;;;;;;4913157;29;20024;-77
2021/11/18 01:42:37;;;;;;;9.65;4.78;;;7.20;99.90;;;;;;4914456;29;20024;-77
2021/11/18 01:45:04;;;;;;;12.73;6.05;;;7.20;99.90;;;;;;4913820;29;20024;-78
2021/11/18 01:47:30;;;;;;;9.70;4.43;;;7.20;99.90;;;;;;4915084;29;20020;-75
2021/11/18 01:49:57;;;;;;;10.93;5.00;;;7.10;99.90;;;;;;4915562;29;20035;-78
2021/11/18 01:52:27;;;;;;;11.63;5.72;;;7.10;99.90;;;;;;4914713;29;20024;-78
2021/11/18 01:54:53;;;;;;;9.73;5.00;;;7.10;99.90;;;;;;4914945;29;20024;-78
2021/11/18 01:57:27;;;;;;;10.02;5.15;;;7.10;99.90;;;;;;4915355;29;20035;-77
2021/11/18 01:59:54;;;;;;;8.27;5.07;;;7.10;99.90;;;;;;4914532;29;20024;-78
2021/11/18 02:02:24;;;;;;;7.05;4.07;;;7.10;99.90;;;;;;4914771;29;20111;-78
2021/11/18 02:05:23;;;;;;;8.02;4.53;;;7.10;99.90;;;;;;4915030;29;20021;-77
2021/11/18 02:07:51;;;;;;;7.38;4.20;;;7.10;99.90;;;;;;4917838;29;20044;-79
2021/11/18 02:10:21;;;;;;;9.50;4.55;;;7.10;99.90;;;;;;4932943;29;20083;-78
2021/11/18 02:12:47;;;;;;;8.60;4.55;;;7.10;99.90;;;;;;4934352;29;20032;-78
2021/11/18 02:15:31;;;;;;;7.57;4.90;;;7.10;99.90;;;;;;4915964;29;20063;-78
2021/11/18 02:17:59;;;;;;;7.13;4.32;;;7.10;99.90;;;;;;4916917;29;20387;-78
2021/11/18 02:20:31;;;;;;;9.98;4.60;;;7.10;99.90;;;;;;4918186;29;20020;-77
2021/11/18 02:22:56;;;;;;;7.97;4.05;;;7.10;99.90;;;;;;4919662;29;20036;-77
2021/11/18 02:25:31;;;;;;;7.88;4.50;;;7.00;99.90;;;;;;4937951;29;20031;-78
2021/11/18 02:27:57;;;;;;;6.68;4.43;;;7.00;99.90;;;;;;4938105;29;20036;-78
2021/11/18 02:30:26;;;;;;;6.55;4.18;;;7.00;99.90;;;;;;4920247;29;20104;-78
2021/11/18 02:32:52;;;;;;;8.38;4.53;;;7.00;99.90;;;;;;4920644;29;20067;-79
2021/11/18 02:35:22;;;;;;;8.23;5.10;;;7.00;99.90;;;;;;4919718;29;20063;-78
2021/11/18 02:37:50;;;;;;;8.43;4.90;;;6.90;99.90;;;;;;4919870;29;20030;-78
2021/11/18 02:40:17;;;;;;;8.68;5.13;;;6.90;99.90;;;;;;4937204;29;20063;-78
2021/11/18 02:42:44;;;;;;;8.95;4.90;;;7.00;99.90;;;;;;4920238;29;20114;-78
2021/11/18 02:45:13;;;;;;;9.57;5.32;;;7.00;99.90;;;;;;4936540;29;20106;-78
2021/11/18 02:47:39;;;;;;;6.63;4.40;;;7.00;99.90;;;;;;4937254;29;20536;-78
2021/11/18 02:50:11;;;;;;;9.18;5.13;;;7.10;99.90;;;;;;4936476;29;20035;-78
2021/11/18 02:52:37;;;;;;;6.60;4.43;;;7.10;99.90;;;;;;4920021;29;20461;-78
2021/11/18 02:55:11;;;;;;;10.48;5.47;;;7.20;99.90;;;;;;4936992;29;20028;-78
2021/11/18 02:57:37;;;;;;;10.50;5.53;;;7.20;99.90;;;;;;4919709;29;20031;-76
2021/11/18 03:00:12;;;;;;;10.20;6.03;;;7.20;99.90;;;;;;4919203;29;20075;-77
2021/11/18 03:02:38;;;;;;;9.85;6.18;;;7.30;99.90;;;;;;4936984;29;20460;-77
2021/11/18 03:05:06;;;;;;;10.52;5.60;;;7.30;99.90;;;;;;4935971;29;20039;-78
2021/11/18 03:07:31;;;;;;;8.27;5.57;;;7.40;99.90;;;;;;4936891;29;20118;-78
2021/11/18 03:09:58;;;;;;;9.18;4.75;;;7.40;99.90;;;;;;4919640;29;20541;-78
2021/11/18 03:12:24;;;;;;;7.32;5.25;;;7.40;99.90;;;;;;4919284;29;20063;-78
2021/11/18 03:14:50;;;;;;;11.13;6.35;;;7.50;99.90;;;;;;4919612;29;20463;-78
2021/11/18 03:17:16;;;;;;;12.02;5.85;;;7.50;99.90;;;;;;4919239;29;20095;-78
2021/11/18 03:19:41;;;;;;;10.25;5.80;;;7.50;99.90;;;;;;4935840;29;20079;-79
2021/11/18 03:22:07;;;;;;;11.38;5.00;;;7.50;99.90;;;;;;4919376;29;20046;-78
2021/11/18 03:24:33;;;;;;;7.40;4.63;;;7.50;99.90;;;;;;4936403;29;20093;-77
2021/11/18 03:26:58;;;;;;;9.57;6.05;;;7.60;99.90;;;;;;4918411;29;20499;-78
2021/11/18 03:29:24;;;;;;;12.77;6.60;;;7.60;99.90;;;;;;4919547;29;20023;-78
2021/11/18 03:31:50;;;;;;;10.75;6.10;;;7.60;99.90;;;;;;4936230;29;20116;-78
2021/11/18 03:34:22;;;;;;;12.02;6.07;;;7.60;99.90;;;;;;4935600;29;20057;-78
2021/11/18 03:36:48;;;;;;;;;;;7.60;99.90;;;;;;4936709;29;20032;-78
2021/11/18 03:39:14;;;;;;;8.00;5.07;;;7.70;99.90;;;;;;4918716;29;19929;-79
2021/11/18 03:41:42;;;;;;;9.73;6.10;;;7.70;99.90;;;;;;4918633;29;20055;-78
2021/11/18 03:44:10;;;;;;;10.35;5.47;;;7.70;99.90;;;;;;4935492;29;20024;-78
2021/11/18 03:46:40;;;;;;;10.75;6.15;;;7.80;99.90;;;;;;4935734;29;20032;-76
2021/11/18 03:49:08;;;;;;;10.85;6.10;;;7.70;99.90;;;;;;4935850;29;20035;-77
2021/11/18 03:51:34;;;;;;;9.68;5.88;;;7.70;99.90;;;;;;4919533;29;20082;-78
2021/11/18 03:54:02;;;;;;;9.70;5.35;;;7.80;99.90;;;;;;4935147;29;20027;-77
2021/11/18 03:56:34;;;;;;;9.77;5.95;;;7.80;99.90;;;;;;4919189;29;20036;-77
2021/11/18 03:59:00;;;;;;;6.95;5.05;;;7.80;99.90;;;;;;4935622;29;20464;-78
2021/11/18 04:01:26;;;;;;;11.52;5.20;;;7.90;99.90;;;;;;4918727;29;20038;-78
2021/11/18 04:03:54;;;;;;;11.25;5.25;;;7.80;99.90;;;;;;4918589;29;20027;-77
2021/11/18 04:06:21;;;;;;;11.57;6.05;;;7.90;99.90;;;;;;4918535;29;20039;-79
2021/11/18 04:08:47;;;;;;;11.13;6.05;;;7.90;99.90;;;;;;4935103;29;20063;-79
2021/11/18 04:11:12;;;;;;;9.40;5.20;;;7.90;99.90;;;;;;4918436;29;20074;-78
2021/11/18 04:13:38;;;;;;;7.88;5.20;;;7.90;99.90;;;;;;4935581;29;20028;-76
2021/11/18 04:16:05;;;;;;;7.13;4.88;;;7.90;99.90;;;;;;4934572;29;20071;-79
2021/11/18 04:18:30;;;;;;;9.68;5.53;;;7.90;99.90;;;;;;4935705;29;20079;-78
2021/11/18 04:20:56;;;;;;;7.95;4.78;;;7.90;99.90;;;;;;4918233;29;20024;-76
2021/11/18 04:23:24;;;;;;;11.70;5.35;;;8.00;99.90;;;;;;4917895;29;20020;-79
2021/11/18 04:25:50;;;;;;;9.55;5.60;;;8.00;99.90;;;;;;4918399;29;20487;-78
2021/11/18 04:28:16;;;;;;;9.68;5.50;;;7.90;99.90;;;;;;4935134;29;20047;-79
2021/11/18 04:30:54;;;;;;;12.80;5.57;;;7.90;99.90;;;;;;4934721;29;20036;-79
2021/11/18 04:33:20;;;;;;;9.32;4.80;;;8.00;99.90;;;;;;4918226;29;20539;-78
2021/11/18 04:35:46;;;;;;;13.77;6.00;;;8.00;99.90;;;;;;4935089;29;20050;-78
2021/11/18 04:38:12;;;;;;;10.38;5.53;;;8.00;99.90;;;;;;4934542;29;20107;-78
2021/11/18 04:40:38;;;;;;;10.43;5.32;;;8.00;99.90;;;;;;4918012;29;20131;-76
2021/11/18 04:43:05;;;;;;;14.43;5.70;;;8.00;99.90;;;;;;4933536;29;20039;-78
2021/11/18 04:45:31;;;;;;;13.45;5.80;;;8.10;99.90;;;;;;4918165;29;20031;-77
2021/11/18 04:47:57;;;;;;;11.40;5.88;;;8.00;99.90;;;;;;4934750;29;20630;-78
2021/11/18 04:50:23;;;;;;;10.93;5.68;;;8.00;99.90;;;;;;4917441;29;20035;-79
2021/11/18 04:52:49;;;;;;;10.65;5.60;;;8.00;99.90;;;;;;4935086;29;20024;-77
2021/11/18 04:55:19;;;;;;;11.50;6.45;;;8.10;99.90;;;;;;4934572;29;20054;-78
2021/11/18 04:57:46;;;;;;;10.68;5.93;;;8.10;99.90;;;;;;4917151;29;20539;-76
2021/11/18 05:00:20;;;;;;;10.93;6.65;;;8.10;99.90;;;;;;4917366;29;20079;-77
2021/11/18 05:02:47;;;;;;;12.60;7.22;;;8.10;99.90;;;;;;4917430;29;20090;-78
2021/11/18 05:05:15;;;;;;;13.52;6.68;;;8.20;99.90;;;;;;4933882;29;20066;-78
2021/11/18 05:07:41;;;;;;;14.68;6.68;;;8.10;99.90;;;;;;4934734;29;20028;-77
2021/11/18 05:10:08;;;;;;;10.30;5.55;;;8.10;99.90;;;;;;4917428;29;20036;-77
2021/11/18 05:12:34;;;;;;;10.48;5.97;;;8.10;99.90;;;;;;4934457;29;20038;-79
2021/11/18 05:15:00;;;;;;;11.25;5.32;;;8.10;99.90;;;;;;4916684;29;20140;-77
2021/11/18 05:17:25;;;;;;;12.93;6.43;;;8.10;99.90;;;;;;4935328;29;20028;-76
2021/11/18 05:19:51;;;;;;;12.80;6.43;;;8.10;99.90;;;;;;4916893;29;20035;-78
2021/11/18 05:22:16;;;;;;;9.93;5.55;;;8.10;99.90;;;;;;4917255;29;20039;-77
2021/11/18 05:24:42;;;;;;;12.40;5.70;;;8.10;99.90;;;;;;4923190;29;20028;-78
2021/11/18 05:27:08;;;;;;;9.95;5.82;;;8.10;99.90;;;;;;4901638;29;20477;-78
2021/11/18 05:29:34;;;;;;;16.90;7.03;;;8.20;99.90;;;;;;4898784;29;20032;-75
2021/11/18 05:32:00;;;;;;;20.77;8.25;;;8.10;99.90;;;;;;4894454;29;20123;-77
2021/11/18 05:34:26;;;;;;;15.85;7.70;;;8.10;99.90;;;;;;4879419;29;20541;-78
2021/11/18 05:36:51;;;;;;;17.02;7.93;;;8.10;99.90;;;;;;4879713;29;20036;-77
2021/11/18 05:39:17;;;;;;;16.85;8.27;;;8.20;99.90;;;;;;4878416;29;20064;-77
2021/11/18 05:41:42;;;;;;;12.10;6.97;;;8.20;99.90;;;;;;4912948;29;20024;-79
2021/11/18 05:44:08;;;;;;;13.00;7.38;;;8.20;99.90;;;;;;4912934;29;20389;-78
2021/11/18 05:46:35;;;;;;;15.02;6.72;;;8.20;99.90;;;;;;4897587;29;20028;-78
2021/11/18 05:49:01;;;;;;;13.73;7.45;;;8.20;99.90;;;;;;4896960;29;20016;-75
2021/11/18 05:51:27;;;;;;;13.35;7.82;;;8.20;99.90;;;;;;4907686;29;20044;-74
2021/11/18 05:53:54;;;;;;;15.48;8.65;;;8.30;99.90;;;;;;4893215;29;20032;-75
2021/11/18 05:56:22;;;;;;;12.82;7.10;;;8.30;99.90;;;;;;4918174;29;20074;-75
2021/11/18 05:58:51;;;;;;;14.07;7.20;;;8.30;99.90;;;;;;4901793;29;20051;-82
2021/11/18 06:01:20;;;;;;;12.43;7.68;;;8.30;99.90;;;;;;4916951;29;20063;-80
2021/11/18 06:03:46;;;;;;;12.93;7.07;;;8.20;99.90;;;;;;4901060;29;20028;-79
2021/11/18 06:06:13;;;;;;;15.23;7.60;;;8.20;99.90;;;;;;4900981;29;20028;-77
2021/11/18 06:08:39;;;;;;;11.38;7.43;;;8.30;99.90;;;;;;4900603;29;20099;-75
2021/11/18 06:11:06;;;;;;;13.40;7.35;;;8.30;99.90;;;;;;4899774;29;20079;-85
2021/11/18 06:13:33;;;;;;;15.23;6.88;;;8.30;99.90;;;;;;4901147;29;20080;-83
2021/11/18 06:16:00;;;;;;;11.82;6.90;;;8.30;99.90;;;;;;4900855;29;20032;-79
2021/11/18 06:18:25;;;;;;;13.18;7.85;;;8.30;99.90;;;;;;4901716;29;20035;-75
2021/11/18 06:20:51;;;;;;;15.07;6.68;;;8.40;99.90;;;;;;4917407;29;20028;-74
2021/11/18 06:23:18;;;;;;;13.88;7.65;;;8.40;99.90;;;;;;4897853;29;20040;-80
2021/11/18 06:25:45;;;;;;;15.30;7.40;;;8.40;99.90;;;;;;4918679;29;20498;-75
2021/11/18 06:28:13;;;;;;;17.67;9.07;;;8.40;99.90;;;;;;4917428;29;20028;-77
2021/11/18 06:31:05;;;;;;;18.77;8.57;;;8.40;99.90;;;;;;4901312;29;20028;-75
2021/11/18 14:38:48;;;;;;;17.35;6.90;;;11.70;99.90;;;;;;4977329;23;20052;-83
2021/11/18 14:41:31;;;;;;;19.52;6.90;;;11.70;99.90;;;;;;4878671;29;20489;-78
2021/11/18 14:44:08;;;;;;;20.33;6.85;;;11.70;99.90;;;;;;4878723;29;20400;-79
2021/11/18 14:47:18;;;;;;;15.93;7.07;;;11.70;99.90;;;;;;4879057;29;20056;-80
2021/11/18 14:50:28;;;;;;;19.63;6.63;;;11.70;99.90;;;;;;4877961;29;20041;-78
2021/11/18 14:52:56;;;;;;;17.92;6.50;;;11.80;99.90;;;;;;4876672;29;20041;-81
2021/11/18 14:55:28;;;;;;;20.77;6.97;;;11.70;99.90;;;;;;4878500;29;20053;-81
2021/11/18 14:58:02;;;;;;;19.85;6.72;;;11.70;99.90;;;;;;4881450;29;20095;-90
2021/11/18 15:00:41;;;;;;;24.83;6.55;;;11.70;99.90;;;;;;4881335;29;20374;-85
2021/11/18 15:03:31;;;;;;;21.75;6.80;;;11.70;99.90;;;;;;4897132;29;20056;-83
2021/11/18 15:05:57;;;;;;;17.80;5.82;;;11.70;99.90;;;;;;4869839;29;20859;-83
2021/11/18 15:08:25;;;;;;;17.10;6.05;;;11.80;99.90;;;;;;4877142;29;20051;-78
2021/11/18 15:10:52;;;;;;;19.30;5.85;;;11.70;99.90;;;;;;4878410;29;20037;-79
2021/11/18 15:13:20;;;;;;;13.25;5.82;;;11.70;99.90;;;;;;4894641;29;20103;-81
2021/11/18 15:15:45;;;;;;;14.20;6.45;;;11.70;99.90;;;;;;4878531;29;20048;-82
2021/11/18 15:18:12;;;;;;;16.65;6.80;;;11.70;99.90;;;;;;4877536;29;20039;-83
2021/11/18 15:20:44;;;;;;;16.60;6.22;;;11.70;99.90;;;;;;4879210;29;20516;-87
2021/11/18 15:23:12;;;;;;;15.57;5.25;;;11.70;99.90;;;;;;4894006;29;20039;-79
2021/11/18 15:25:38;;;;;;;17.95;6.45;;;11.70;99.90;;;;;;4894694;29;20084;-79
2021/11/18 15:28:06;;;;;;;16.38;6.35;;;11.70;99.90;;;;;;4876971;29;20430;-79
2021/11/18 15:30:45;;;;;;;15.38;5.07;;;11.70;99.90;;;;;;4878042;29;20504;-83
2021/11/18 15:33:11;;;;;;;22.58;6.63;;;11.70;99.90;;;;;;4878400;29;20029;-80
2021/11/18 15:35:38;;;;;;;18.88;6.30;;;11.70;99.90;;;;;;4894572;29;20041;-80
2021/11/18 15:38:09;;;;;;;23.92;6.60;;;11.70;99.90;;;;;;4877257;29;20051;-83
2021/11/18 15:40:39;;;;;;;15.23;6.18;;;11.70;99.90;;;;;;4877120;29;20029;-78
2021/11/18 15:43:07;;;;;;;16.95;6.93;;;11.70;99.90;;;;;;4878024;29;20118;-81
2021/11/18 15:45:34;;;;;;;19.67;6.85;;;11.60;99.90;;;;;;4878197;29;20039;-79
2021/11/18 15:48:00;;;;;;;13.95;5.40;;;11.60;99.90;;;;;;4892994;29;20481;-79
2021/11/18 15:50:29;;;;;;;14.70;5.07;;;11.60;99.90;;;;;;4878610;29;20089;-79
2021/11/18 15:52:56;;;;;;;14.13;5.30;;;11.60;99.90;;;;;;4877610;29;20024;-78
2021/11/18 15:55:22;;;;;;;20.52;5.65;;;11.60;99.90;;;;;;4878230;29;20059;-80
2021/11/18 15:57:52;;;;;;;13.73;4.43;;;11.60;99.90;;;;;;4894715;29;20044;-89
2021/11/18 16:00:25;;;;;;;15.50;5.68;;;11.60;99.90;;;;;;4894232;29;20040;-85
2021/11/18 16:03:00;;;;;;;19.08;5.80;;;11.60;99.90;;;;;;4879204;29;20028;-87
2021/11/18 16:05:29;;;;;;;17.38;5.47;;;11.60;99.90;;;;;;4878045;29;20024;-84
2021/11/18 16:07:57;;;;;;;18.15;5.60;;;11.60;99.90;;;;;;4862552;29;20065;-85
2021/11/18 16:10:31;;;;;;;15.13;6.18;;;11.60;99.90;;;;;;4876430;29;20032;-83
2021/11/18 16:13:03;;;;;;;14.68;5.30;;;11.60;99.90;;;;;;4892357;29;20063;-84
2021/11/18 16:15:31;;;;;;;13.80;5.68;;;11.50;99.90;;;;;;4876971;29;20024;-80
2021/11/18 16:17:59;;;;;;;19.00;5.93;;;11.50;99.90;;;;;;4877500;29;20024;-82
2021/11/18 16:20:32;;;;;;;19.65;6.55;;;11.50;99.90;;;;;;4877154;29;20035;-82
2021/11/18 16:22:58;;;;;;;18.10;7.07;;;11.50;99.90;;;;;;4876050;29;20060;-82
2021/11/18 16:25:28;;;;;;;18.67;5.68;;;11.50;99.90;;;;;;4877863;29;20035;-83
2021/11/18 16:27:54;;;;;;;18.27;6.07;;;11.50;99.90;;;;;;4877266;29;20029;-82
2021/11/18 16:30:24;;;;;;;16.23;5.88;;;11.50;99.90;;;;;;4876406;29;20036;-82
2021/11/18 16:32:51;;;;;;;16.05;6.50;;;11.50;99.90;;;;;;4894154;29;20029;-82
2021/11/18 16:35:17;;;;;;;18.10;5.85;;;11.60;99.90;;;;;;4876948;29;20100;-83
2021/11/18 16:37:43;;;;;;;17.23;6.65;;;11.50;99.90;;;;;;4876385;29;20496;-82
2021/11/18 16:40:15;;;;;;;19.75;6.90;;;11.60;99.90;;;;;;4875185;29;21600;-83
2021/11/18 16:42:41;;;;;;;32.10;10.02;;;11.60;99.90;;;;;;4876360;29;20020;-82
2021/11/18 16:45:09;;;;;;;24.65;7.40;;;11.60;99.90;;;;;;4861040;29;20047;-82
2021/11/18 16:47:35;;;;;;;17.00;6.07;;;11.60;99.90;;;;;;4876953;29;20028;-83
2021/11/18 16:50:03;;;;;;;16.05;5.95;;;11.60;99.90;;;;;;4893383;29;20039;-82
2021/11/18 16:52:33;;;;;;;21.20;7.57;;;11.60;99.90;;;;;;4893597;29;20052;-82
2021/11/18 16:54:59;;;;;;;16.35;6.68;;;11.60;99.90;;;;;;4876701;29;20480;-83
2021/11/18 16:57:27;;;;;;;22.08;8.30;;;11.60;99.90;;;;;;4877352;29;20101;-83
2021/11/18 16:59:53;;;;;;;17.20;6.22;;;11.60;99.90;;;;;;4892948;29;20063;-83
2021/11/18 17:02:21;;;;;;;20.77;7.35;;;11.60;99.90;;;;;;4876637;29;20056;-84
2021/11/18 17:04:49;;;;;;;22.02;7.47;;;11.60;99.90;;;;;;4876719;29;20516;-82
2021/11/18 17:07:16;;;;;;;20.33;7.65;;;11.60;99.90;;;;;;4876890;29;20055;-84
2021/11/18 17:09:44;;;;;;;16.63;7.70;;;11.60;99.90;;;;;;4877037;29;20496;-83
2021/11/18 17:12:12;;;;;;;19.38;8.70;;;11.60;99.90;;;;;;4875414;29;20135;-83
2021/11/18 17:14:38;;;;;;;23.77;7.30;;;11.60;99.90;;;;;;4893095;29;20035;-82
2021/11/18 17:17:08;;;;;;;20.38;7.05;;;11.60;99.90;;;;;;4892398;29;20037;-84
2021/11/18 17:19:37;;;;;;;22.13;9.98;;;11.60;99.90;;;;;;4877384;29;20484;-84
2021/11/18 17:22:09;;;;;;;22.25;9.95;;;11.60;99.90;;;;;;4876258;29;20062;-85
2021/11/18 17:24:36;;;;;;;28.45;10.68;;;11.60;99.90;;;;;;4876914;29;20017;-85
2021/11/18 17:27:02;;;;;;;22.55;10.38;;;11.60;99.90;;;;;;4876474;29;20127;-84
2021/11/18 17:29:32;;;;;;;20.08;10.68;;;11.60;99.90;;;;;;4874431;29;20033;-85
2021/11/18 17:31:58;;;;;;;16.38;7.95;;;11.60;99.90;;;;;;4876370;29;20132;-84
2021/11/18 17:34:25;;;;;;;20.90;7.40;;;11.60;99.90;;;;;;4893496;29;20104;-83
2021/11/18 17:36:52;;;;;;;25.67;7.63;;;11.60;99.90;;;;;;4876646;29;20519;-85
2021/11/18 17:39:24;;;;;;;15.80;6.40;;;11.60;99.90;;;;;;4892779;29;20039;-87
2021/11/18 17:41:51;;;;;;;;;;;11.60;99.90;;;;;;4879391;29;20120;-87
2021/11/18 17:44:19;;;;;;;20.92;11.05;;;11.60;99.90;;;;;;4895039;29;19918;-84
2021/11/18 17:46:49;;;;;;;27.35;12.40;;;11.60;99.90;;;;;;4876222;29;20025;-85
2021/11/18 17:49:18;;;;;;;25.02;12.57;;;11.60;99.90;;;;;;4891960;29;20044;-82
2021/11/18 17:51:47;;;;;;;23.58;9.25;;;11.60;99.90;;;;;;4896011;29;20028;-81
2021/11/18 17:54:14;;;;;;;17.80;7.05;;;11.70;99.90;;;;;;4876831;29;20028;-84
2021/11/18 17:56:42;;;;;;;16.02;6.50;;;11.70;99.90;;;;;;4880966;29;20032;-83
2021/11/18 17:59:11;;;;;;;15.68;6.47;;;11.70;99.90;;;;;;4878703;29;20037;-83
2021/11/18 18:01:46;;;;;;;16.33;6.53;;;11.70;99.90;;;;;;4896465;29;20060;-84
2021/11/18 18:04:13;;;;;;;17.30;6.35;;;11.70;99.90;;;;;;4879964;29;20028;-84
2021/11/18 18:06:41;;;;;;;16.33;7.20;;;11.70;99.90;;;;;;4881386;29;20032;-89
2021/11/18 18:09:11;;;;;;;18.80;7.28;;;11.70;99.90;;;;;;4880797;29;20105;-85
2021/11/18 18:11:37;;;;;;;19.02;7.03;;;11.70;99.90;;;;;;4880060;29;20036;-82
2021/11/18 18:14:03;;;;;;;19.70;7.13;;;11.70;99.90;;;;;;4879661;29;20032;-86
2021/11/18 18:16:36;;;;;;;24.67;8.02;;;11.70;99.90;;;;;;4879476;29;20497;-84
2021/11/18 18:19:04;;;;;;;18.55;7.63;;;11.70;99.90;;;;;;4876738;29;20059;-84
2021/11/18 18:21:31;;;;;;;18.75;7.22;;;11.70;99.90;;;;;;4880231;29;20492;-81
2021/11/18 18:23:59;;;;;;;17.77;7.05;;;11.80;99.90;;;;;;4863041;29;20514;-83
2021/11/18 18:26:32;;;;;;;20.00;8.43;;;11.80;99.90;;;;;;4897875;29;20041;-83
2021/11/18 18:28:59;;;;;;;28.45;17.67;;;11.80;99.90;;;;;;4865599;29;20124;-86
2021/11/18 18:31:33;;;;;;;34.03;21.40;;;11.80;99.90;;;;;;4879375;29;20476;-84
2021/11/18 18:33:59;;;;;;;25.80;15.00;;;11.80;99.90;;;;;;4895635;29;20031;-82
2021/11/18 18:36:31;;;;;;;21.67;9.70;;;11.80;99.90;;;;;;4861846;29;20086;-82
2021/11/18 18:39:00;;;;;;;28.02;13.00;;;11.80;99.90;;;;;;4861547;29;20048;-82
2021/11/18 18:41:30;;;;;;;18.13;8.75;;;11.80;99.90;;;;;;4879337;29;20058;-86
2021/11/18 18:43:58;;;;;;;18.15;7.50;;;11.80;99.90;;;;;;4878098;29;20405;-81
2021/11/18 18:46:27;;;;;;;18.00;7.38;;;11.80;99.90;;;;;;4878675;29;20044;-83
2021/11/18 18:48:54;;;;;;;15.93;7.22;;;11.80;99.90;;;;;;4877872;29;20053;-84
2021/11/18 18:52:09;;;;;;;16.77;6.45;;;11.80;99.90;;;;;;4892789;29;20041;-84
2021/11/18 18:54:38;;;;;;;13.57;6.18;;;11.80;99.90;;;;;;4890742;29;20041;-80
2021/11/18 18:57:06;;;;;;;16.35;6.82;;;11.80;99.90;;;;;;4895250;29;20104;-86
2021/11/18 18:59:32;;;;;;;16.23;9.07;;;11.80;99.90;;;;;;4880339;29;20433;-82
2021/11/18 19:02:00;;;;;;;23.90;10.45;;;11.80;99.90;;;;;;4895718;29;20037;-83
2021/11/18 19:04:26;;;;;;;24.33;9.48;;;11.90;99.90;;;;;;4881427;29;20028;-86
2021/11/18 19:06:53;;;;;;;17.30;9.25;;;11.90;99.90;;;;;;4876525;29;20028;-81
2021/11/18 19:09:19;;;;;;;17.98;8.73;;;11.90;99.90;;;;;;4880237;29;20032;-80
2021/11/18 19:11:49;;;;;;;16.63;8.95;;;11.90;99.90;;;;;;4879186;29;20782;-82
2021/11/18 19:14:16;;;;;;;15.15;7.97;;;11.90;99.90;;;;;;4878790;29;20095;-79
2021/11/18 19:16:43;;;;;;;13.60;6.85;;;11.90;99.90;;;;;;4881934;29;20033;-84
2021/11/18 19:19:19;;;;;;;19.98;8.75;;;11.90;99.90;;;;;;4880295;29;20025;-82
2021/11/18 19:21:47;;;;;;;15.45;9.27;;;11.90;99.90;;;;;;4880521;29;20036;-83
2021/11/18 19:24:15;;;;;;;15.52;8.10;;;11.90;99.90;;;;;;4880836;29;20116;-82
2021/11/18 19:26:47;;;;;;;18.33;10.05;;;11.90;99.90;;;;;;4880463;29;20044;-79
2021/11/18 19:29:26;;;;;;;19.02;10.48;;;11.90;99.90;;;;;;4871584;29;20037;-83
2021/11/18 19:32:08;;;;;;;21.95;12.88;;;11.90;99.90;;;;;;4880922;29;20123;-81
2021/11/18 19:34:48;;;;;;;17.55;9.07;;;11.90;99.90;;;;;;4862407;29;20508;-83
2021/11/18 19:37:26;;;;;;;16.27;8.38;;;11.90;99.90;;;;;;4861841;29;20132;-79
2021/11/18 19:39:54;;;;;;;13.60;9.00;;;11.90;99.90;;;;;;4861206;29;20025;-80
2021/11/18 19:42:23;;;;;;;14.52;8.38;;;11.90;99.90;;;;;;4861324;29;20029;-83
2021/11/18 19:44:53;;;;;;;16.05;9.32;;;11.90;99.90;;;;;;4883624;29;20027;-79
2021/11/18 19:47:22;;;;;;;19.48;9.23;;;11.90;99.90;;;;;;4880089;29;20051;-81
2021/11/18 19:49:52;;;;;;;17.42;8.40;;;12.00;99.90;;;;;;4883204;29;20119;-79
2021/11/18 19:52:21;;;;;;;17.65;8.07;;;12.00;99.90;;;;;;4893301;29;20039;-80
2021/11/18 19:54:50;;;;;;;17.05;9.38;;;12.00;99.90;;;;;;4879501;29;20043;-81
2021/11/18 19:57:20;;;;;;;20.10;9.20;;;11.90;99.90;;;;;;4897475;29;20036;-85
2021/11/18 19:59:47;;;;;;;19.58;9.23;;;11.90;99.90;;;;;;4880557;29;20036;-81
2021/11/18 20:02:13;;;;;;;21.70;9.68;;;11.90;99.90;;;;;;4879654;29;20112;-82
2021/11/18 20:04:42;;;;;;;20.15;10.02;;;11.90;99.90;;;;;;4897630;29;20052;-83
2021/11/18 20:07:12;;;;;;;21.27;10.20;;;12.00;99.90;;;;;;4865203;29;20032;-86
2021/11/18 20:09:37;;;;;;;17.42;10.55;;;12.00;99.90;;;;;;4880992;29;20025;-83
2021/11/18 20:12:08;;;;;;;16.13;8.52;;;12.00;99.90;;;;;;4880707;29;20099;-83
2021/11/18 20:14:39;;;;;;;20.25;9.20;;;12.00;99.90;;;;;;4880681;29;20390;-83
2021/11/18 20:17:09;;;;;;;11.95;7.75;;;12.00;99.90;;;;;;4880895;29;20040;-93
2021/11/18 20:19:36;;;;;;;18.45;8.40;;;12.00;99.90;;;;;;4870155;29;20035;-86
2021/11/18 20:22:04;;;;;;;15.25;8.20;;;12.00;99.90;;;;;;4905658;29;20500;-81
2021/11/18 20:24:30;;;;;;;23.20;8.80;;;12.00;99.90;;;;;;4895553;29;20021;-86
2021/11/18 20:26:58;;;;;;;21.33;10.98;;;11.90;99.90;;;;;;4899250;29;20032;-83
2021/11/18 20:29:28;;;;;;;15.60;9.00;;;12.00;99.90;;;;;;4899876;29;20061;-86
2021/11/18 20:32:01;;;;;;;18.48;8.85;;;12.00;99.90;;;;;;4898634;29;20035;-90
2021/11/18 20:35:06;;;;;;;14.88;8.80;;;12.00;99.90;;;;;;4881011;29;20451;-84
2021/11/18 20:37:53;;;;;;;12.07;8.18;;;12.00;99.90;;;;;;4878146;29;20147;-91
2021/11/18 20:40:24;;;;;;;18.33;9.30;;;12.00;99.90;;;;;;4880751;29;20028;-81
2021/11/18 20:42:50;;;;;;;15.50;9.90;;;12.00;99.90;;;;;;4886535;29;20032;-87
2021/11/18 20:45:18;;;;;;;14.93;8.30;;;12.00;99.90;;;;;;4898745;29;20172;-88
2021/11/18 20:47:46;;;;;;;16.50;8.10;;;12.00;99.90;;;;;;4883405;29;20020;-84
2021/11/18 20:50:17;;;;;;;14.68;7.95;;;12.00;99.90;;;;;;4878778;29;20036;-80
2021/11/18 20:52:47;;;;;;;15.63;9.02;;;12.00;99.90;;;;;;4879462;29;20021;-84
2021/11/18 20:55:15;;;;;;;18.58;9.60;;;12.00;99.90;;;;;;4880352;29;20025;-83
2021/11/18 20:58:24;;;;;;;15.23;8.45;;;12.00;99.90;;;;;;4879691;29;20036;-81
2021/11/18 21:01:20;;;;;;;18.23;8.25;;;12.00;99.90;;;;;;4891129;29;20033;-80